Time;durP1;ratioP1;P1;durP2;ratioP2;P2;SDS_P1;SDS_P2;PMS_P1;PMS_P2;Temp;Humidity;BMP_temperature;BMP_pressure;BME280_temperature;BME280_humidity;BME280_pressure;Samples;Min_cycle;Max_cycle;Signal;HPM_P1;HPM_P2
2022/12/25 00:01:31;;;;;;;30.20;8.70;;;;;;;5.14;100.00;101166.66;7390741;19;20954;-64
2022/12/25 00:04:00;;;;;;;22.50;8.07;;;;;;;5.12;100.00;101175.88;7389733;19;20411;-64
2022/12/25 00:06:30;;;;;;;35.83;9.10;;;;;;;4.97;100.00;101179.13;7390914;19;20393;-64
2022/12/25 00:08:59;;;;;;;25.60;8.33;;;;;;;4.95;100.00;101179.78;7388234;19;20428;-64
2022/12/25 00:11:29;;;;;;;38.47;10.20;;;;;;;4.88;100.00;101183.59;7392993;19;20398;-64
2022/12/25 00:13:58;;;;;;;27.90;9.03;;;;;;;4.81;100.00;101179.69;7390048;19;20421;-64
2022/12/25 00:16:31;;;;;;;36.43;9.50;;;;;;;4.76;100.00;101187.84;7392164;19;20402;-64
2022/12/25 00:19:00;;;;;;;29.10;9.20;;;;;;;4.69;100.00;101195.06;7387474;19;20793;-64
2022/12/25 00:21:31;;;;;;;31.50;9.43;;;;;;;4.66;100.00;101201.63;7392623;19;20380;-64
2022/12/25 00:24:02;;;;;;;23.40;8.47;;;;;;;4.61;100.00;101203.81;7389837;19;20440;-64
2022/12/25 00:26:31;;;;;;;25.10;9.37;;;;;;;4.61;100.00;101202.94;7392163;19;20427;-63
2022/12/25 00:29:01;;;;;;;27.97;9.57;;;;;;;4.59;100.00;101213.94;7386891;19;20427;-64
2022/12/25 00:31:34;;;;;;;29.40;8.43;;;;;;;4.59;100.00;101215.59;7394304;19;20477;-64
2022/12/25 00:34:04;;;;;;;32.50;9.43;;;;;;;4.59;100.00;101216.50;7388905;19;20421;-64
2022/12/25 00:36:33;;;;;;;32.47;10.17;;;;;;;4.58;100.00;101219.81;7395898;19;20395;-63
2022/12/25 00:39:10;;;;;;;27.83;8.93;;;;;;;4.52;100.00;101226.16;7387739;19;20438;-64
2022/12/25 00:44:21;;;;;;;33.60;9.00;;;;;;;4.44;100.00;101221.38;7388268;19;20407;-63
2022/12/25 00:46:53;;;;;;;26.60;9.07;;;;;;;4.41;100.00;101216.00;7391800;19;20463;-64
2022/12/25 00:49:23;;;;;;;32.87;9.50;;;;;;;4.40;100.00;101211.69;7387325;19;20431;-64
2022/12/25 00:51:53;;;;;;;31.57;8.97;;;;;;;4.43;100.00;101211.94;7391310;19;20477;-63
2022/12/25 00:54:23;;;;;;;36.00;9.60;;;;;;;4.43;100.00;101203.34;7388801;19;20407;-64
2022/12/25 00:56:52;;;;;;;32.13;9.63;;;;;;;4.42;100.00;101199.91;7391302;19;20954;-62
2022/12/25 00:59:22;;;;;;;24.17;9.13;;;;;;;4.46;100.00;101190.78;7387047;19;20455;-62
2022/12/25 01:01:54;;;;;;;39.40;9.33;;;;;;;4.46;100.00;101183.13;7391356;19;20392;-64
2022/12/25 01:04:24;;;;;;;33.30;10.53;;;;;;;4.41;100.00;101181.94;7388505;19;20411;-63
2022/12/25 01:06:53;;;;;;;36.33;10.83;;;;;;;4.38;100.00;101177.47;7391082;19;20412;-64
2022/12/25 01:12:05;;;;;;;47.17;10.77;;;;;;;4.38;100.00;101184.25;7390614;19;20376;-64
2022/12/25 01:14:35;;;;;;;37.80;10.70;;;;;;;4.40;100.00;101182.69;7387655;19;20423;-63
2022/12/25 01:17:07;;;;;;;40.23;12.70;;;;;;;4.37;100.00;101180.81;7390310;19;20380;-64
2022/12/25 01:19:36;;;;;;;31.30;11.20;;;;;;;4.36;100.00;101168.78;7385870;19;20981;-64
2022/12/25 01:22:06;;;;;;;35.90;11.30;;;;;;;4.32;100.00;101164.25;7390110;19;20408;-64
2022/12/25 01:24:35;;;;;;;36.27;10.67;;;;;;;4.26;100.00;101169.78;7387679;19;20451;-63
2022/12/25 01:27:05;;;;;;;31.30;11.53;;;;;;;4.23;100.00;101176.31;7390567;19;20384;-64
2022/12/25 01:29:34;;;;;;;35.83;11.20;;;;;;;4.21;100.00;101175.34;7383985;19;20434;-64
2022/12/25 01:32:07;;;;;;;35.83;10.70;;;;;;;4.17;100.00;101172.53;7388676;19;20416;-64
2022/12/25 01:34:36;;;;;;;24.27;9.40;;;;;;;4.18;100.00;101171.78;7387180;19;20435;-64
2022/12/25 01:37:06;;;;;;;31.20;11.17;;;;;;;4.19;100.00;101176.13;7390208;19;20399;-63
2022/12/25 01:39:35;;;;;;;37.37;12.53;;;;;;;4.11;100.00;101176.31;7382360;19;20770;-64
2022/12/25 01:42:05;;;;;;;40.83;12.57;;;;;;;4.03;100.00;101179.19;7388799;19;20419;-64
2022/12/25 01:45:05;;;;;;;36.03;10.67;;;;;;;3.95;100.00;101187.03;7382734;19;20424;-64
2022/12/25 01:47:37;;;;;;;30.53;10.40;;;;;;;3.87;100.00;101189.91;7382317;19;20384;-64
2022/12/25 01:50:08;;;;;;;37.33;11.90;;;;;;;3.73;100.00;101201.63;7381685;19;20423;-63
2022/12/25 01:52:37;;;;;;;42.47;11.97;;;;;;;3.72;100.00;101204.94;7382706;19;20424;-63
2022/12/25 01:55:10;;;;;;;40.10;11.40;;;;;;;3.70;100.00;101203.91;7384186;19;20380;-64
2022/12/25 01:57:40;;;;;;;40.00;12.13;;;;;;;3.70;100.00;101195.38;7382662;19;20415;-64
2022/12/25 02:00:11;;;;;;;38.80;11.27;;;;;;;3.65;100.00;101203.56;7382303;19;20888;-64
2022/12/25 02:02:43;;;;;;;30.57;11.97;;;;;;;3.67;100.00;101200.25;7383057;19;20399;-64
2022/12/25 02:05:17;;;;;;;55.73;12.97;;;;;;;3.62;100.00;101208.47;7386528;19;20419;-64
2022/12/25 02:07:48;;;;;;;35.23;12.10;;;;;;;3.63;100.00;101207.69;7387353;19;20441;-64
2022/12/25 02:10:18;;;;;;;33.40;11.07;;;;;;;3.58;100.00;101208.97;7386208;19;20384;-63
2022/12/25 02:12:48;;;;;;;37.93;12.53;;;;;;;3.67;100.00;101215.56;7383760;19;20418;-64
2022/12/25 02:15:20;;;;;;;31.70;10.97;;;;;;;3.69;100.00;101212.34;7386575;19;20403;-65
2022/12/25 02:18:04;;;;;;;41.27;13.17;;;;;;;3.61;100.00;101216.00;7383960;19;20411;-63
2022/12/25 02:20:49;;;;;;;37.97;12.30;;;;;;;3.69;100.00;101208.94;7384575;19;20928;-64
2022/12/25 02:23:41;;;;;;;37.40;11.50;;;;;;;3.72;100.00;101209.16;7381695;19;20419;-64
2022/12/25 02:26:22;;;;;;;51.60;13.00;;;;;;;3.65;100.00;101201.03;7392618;19;20397;-64
2022/12/25 02:28:59;;;;;;;42.47;13.00;;;;;;;3.66;100.00;101204.47;7383408;19;20434;-64
2022/12/25 02:31:32;;;;;;;31.57;11.70;;;;;;;3.61;100.00;101205.78;7388760;19;20403;-64
2022/12/25 02:34:06;;;;;;;40.27;11.40;;;;;;;3.54;100.00;101208.63;7385532;19;20410;-64
2022/12/25 02:36:40;;;;;;;42.03;13.10;;;;;;;3.51;100.00;101214.38;7388721;19;20407;-64
2022/12/25 02:42:01;;;;;;;40.03;11.93;;;;;;;3.45;100.00;101208.81;7391033;19;20418;-64
2022/12/25 03:11:58;;;;;;;35.30;12.67;;;;;;;3.51;100.00;101209.28;7395345;19;20380;-63
2022/12/25 03:17:13;;;;;;;36.07;12.70;;;;;;;3.53;100.00;101182.22;7394663;19;20762;-64
2022/12/25 03:27:52;;;;;;;42.13;14.23;;;;;;;3.48;100.00;101189.53;7391480;19;20411;-64
2022/12/25 03:33:15;;;;;;;38.73;13.50;;;;;;;3.60;100.00;101199.78;7391203;19;20794;-64
2022/12/25 03:36:09;;;;;;;35.63;12.43;;;;;;;3.38;100.00;101207.41;7394094;19;20395;-62
2022/12/25 04:36:28;;;;;;;46.30;16.50;;;;;;;4.14;100.00;101279.59;7394983;19;20393;-64
2022/12/25 04:39:00;;;;;;;44.13;15.63;;;;;;;4.02;100.00;101282.13;7387460;19;20422;-64
2022/12/25 04:41:29;;;;;;;50.27;16.33;;;;;;;3.83;100.00;101282.34;7390088;19;20845;-62
2022/12/25 04:43:59;;;;;;;73.23;20.03;;;;;;;3.88;100.00;101273.38;7388304;19;20956;-64
2022/12/25 04:46:28;;;;;;;42.63;16.83;;;;;;;3.86;100.00;101274.94;7391827;19;20733;-64
2022/12/25 04:48:58;;;;;;;38.90;16.43;;;;;;;4.01;100.00;101269.22;7387464;19;20431;-65
2022/12/25 04:51:27;;;;;;;40.67;16.63;;;;;;;4.11;100.00;101275.91;7391406;19;20388;-64
2022/12/25 04:54:00;;;;;;;48.10;16.07;;;;;;;4.06;100.00;101267.91;7388482;19;20419;-64
2022/12/25 04:56:29;;;;;;;40.27;16.10;;;;;;;4.03;100.00;101260.00;7391755;19;20913;-64
2022/12/25 04:58:58;;;;;;;45.10;16.10;;;;;;;3.80;100.00;101263.34;7386917;19;20414;-64
2022/12/25 05:01:28;;;;;;;47.80;17.10;;;;;;;3.84;100.00;101268.81;7390160;19;20399;-63
2022/12/25 05:03:58;;;;;;;47.00;16.33;;;;;;;3.94;100.00;101252.53;7388440;19;20407;-64
2022/12/25 05:06:28;;;;;;;44.80;17.07;;;;;;;3.84;100.00;101255.16;7388857;19;20412;-65
2022/12/25 05:09:00;;;;;;;47.53;15.10;;;;;;;3.90;100.00;101253.97;7387186;19;20952;-64
2022/12/25 05:11:29;;;;;;;47.33;15.73;;;;;;;3.72;100.00;101256.00;7391020;19;20383;-64
2022/12/25 05:13:59;;;;;;;42.63;16.17;;;;;;;3.80;100.00;101242.94;7388213;19;20961;-64
2022/12/25 05:16:28;;;;;;;34.43;14.20;;;;;;;3.53;100.00;101240.91;7390612;19;20395;-65
2022/12/25 05:18:59;;;;;;;50.80;15.03;;;;;;;3.56;100.00;101243.72;7386618;19;20418;-64
2022/12/25 05:21:29;;;;;;;39.20;14.83;;;;;;;3.73;100.00;101237.34;7389431;19;20404;-64
2022/12/25 05:24:01;;;;;;;37.10;15.03;;;;;;;3.77;100.00;101233.38;7386829;19;20418;-64
2022/12/25 05:26:30;;;;;;;59.63;16.10;;;;;;;3.99;100.00;101235.03;7390286;19;20391;-64
2022/12/25 05:29:00;;;;;;;42.10;14.87;;;;;;;4.09;100.00;101222.16;7384848;19;20462;-64
2022/12/25 05:31:30;;;;;;;42.20;14.97;;;;;;;3.99;100.00;101212.91;7390368;19;20802;-64
2022/12/25 05:33:59;;;;;;;43.30;16.10;;;;;;;3.85;100.00;101206.75;7387319;19;20426;-64
2022/12/25 05:36:29;;;;;;;36.07;13.40;;;;;;;3.85;100.00;101196.53;7389973;19;20387;-64
2022/12/25 05:39:01;;;;;;;36.93;15.27;;;;;;;3.89;100.00;101197.66;7386248;19;20422;-64
2022/12/25 05:41:30;;;;;;;53.87;16.00;;;;;;;3.89;100.00;101184.91;7393446;19;20403;-65
2022/12/25 05:44:03;;;;;;;35.83;13.17;;;;;;;3.53;100.00;101187.31;7385358;19;20839;-63
2022/12/25 05:46:32;;;;;;;36.80;13.30;;;;;;;3.46;100.00;101188.53;7390176;19;20917;-64
2022/12/25 05:49:04;;;;;;;32.03;14.20;;;;;;;3.75;100.00;101178.78;7385621;19;20528;-64
2022/12/25 05:51:34;;;;;;;31.87;12.63;;;;;;;3.92;100.00;101180.94;7390375;19;20387;-64
2022/12/25 05:54:06;;;;;;;38.60;14.87;;;;;;;3.87;100.00;101174.59;7386691;19;20452;-64
2022/12/25 05:56:36;;;;;;;30.40;12.50;;;;;;;3.90;100.00;101176.50;7389826;19;20488;-65
2022/12/25 05:59:05;;;;;;;34.83;15.20;;;;;;;3.88;100.00;101175.47;7387484;19;20459;-65
2022/12/25 06:01:34;;;;;;;37.40;14.30;;;;;;;3.97;100.00;101173.63;7388994;19;20383;-63
2022/12/25 06:04:04;;;;;;;33.13;13.17;;;;;;;4.02;100.00;101167.19;7386699;19;20470;-62
2022/12/25 06:06:40;;;;;;;37.83;13.63;;;;;;;4.17;100.00;101169.13;7389929;19;20392;-64
2022/12/25 06:09:13;;;;;;;38.53;14.10;;;;;;;4.22;100.00;101156.66;7385296;19;20415;-64
2022/12/25 06:11:43;;;;;;;31.20;13.07;;;;;;;4.16;100.00;101163.09;7389221;19;20739;-62
2022/12/25 06:14:13;;;;;;;27.63;13.17;;;;;;;4.20;100.00;101169.31;7386455;19;20415;-64
2022/12/25 06:16:43;;;;;;;49.17;14.53;;;;;;;4.05;100.00;101163.97;7387662;19;20384;-65
2022/12/25 06:19:12;;;;;;;30.13;13.30;;;;;;;3.91;100.00;101161.25;7392235;19;20451;-64
2022/12/25 06:21:42;;;;;;;29.00;12.50;;;;;;;3.92;100.00;101159.63;7395189;19;20384;-64
2022/12/25 06:24:14;;;;;;;30.07;12.63;;;;;;;3.91;100.00;101157.84;7393635;19;20418;-64
2022/12/25 06:26:49;;;;;;;30.93;13.17;;;;;;;4.12;100.00;101158.56;7396297;19;20391;-64
2022/12/25 06:29:19;;;;;;;34.80;13.87;;;;;;;4.16;100.00;101152.88;7393806;19;20458;-62
2022/12/25 06:31:48;;;;;;;32.10;14.20;;;;;;;4.03;100.00;101152.75;7400661;19;20866;-65
2022/12/25 06:34:18;;;;;;;35.23;13.60;;;;;;;4.11;100.00;101161.88;7394152;19;20411;-64
2022/12/25 06:36:47;;;;;;;42.33;16.03;;;;;;;4.07;100.00;101158.97;7396042;19;20433;-64
2022/12/25 06:39:20;;;;;;;34.23;12.90;;;;;;;4.30;100.00;101155.56;7391129;19;20446;-64
2022/12/25 06:41:49;;;;;;;33.73;13.13;;;;;;;4.17;100.00;101154.66;7394181;19;20417;-65
2022/12/25 06:44:19;;;;;;;36.53;12.73;;;;;;;3.92;100.00;101147.75;7392681;19;20418;-63
2022/12/25 06:46:48;;;;;;;30.90;11.70;;;;;;;4.01;100.00;101152.63;7395643;19;20391;-64
2022/12/25 06:49:18;;;;;;;38.00;12.17;;;;;;;3.97;100.00;101165.97;7391121;19;20458;-64
2022/12/25 06:51:47;;;;;;;30.87;13.70;;;;;;;3.81;100.00;101173.22;7395880;19;20387;-64
2022/12/25 06:54:19;;;;;;;37.20;12.40;;;;;;;3.53;100.00;101166.03;7391583;19;20422;-63
2022/12/25 06:56:49;;;;;;;29.07;11.73;;;;;;;3.51;100.00;101179.56;7395438;19;20395;-65
2022/12/25 06:59:19;;;;;;;31.63;12.03;;;;;;;3.60;100.00;101168.28;7390559;19;20433;-62
2022/12/25 07:01:51;;;;;;;35.97;12.13;;;;;;;3.64;100.00;101166.06;7394448;19;20391;-63
2022/12/25 07:04:24;;;;;;;26.27;11.50;;;;;;;3.57;100.00;101166.38;7392580;19;20443;-64
2022/12/25 07:06:54;;;;;;;34.30;12.70;;;;;;;3.56;100.00;101168.81;7395015;19;20950;-64
2022/12/25 07:09:26;;;;;;;32.73;11.83;;;;;;;3.65;100.00;101157.63;7391169;19;20442;-65
2022/12/25 07:11:55;;;;;;;32.57;11.37;;;;;;;3.76;100.00;101155.03;7395804;19;20400;-64
2022/12/25 07:14:25;;;;;;;36.03;11.97;;;;;;;3.79;100.00;101155.22;7392274;19;20768;-64
2022/12/25 07:16:55;;;;;;;41.23;12.57;;;;;;;3.83;100.00;101156.34;7395348;19;20402;-64
2022/12/25 07:19:24;;;;;;;35.40;13.27;;;;;;;3.75;100.00;101150.69;7390392;19;20426;-65
2022/12/25 07:21:54;;;;;;;38.23;11.70;;;;;;;3.70;100.00;101159.66;7394098;19;20404;-64
2022/12/25 07:24:26;;;;;;;35.03;12.27;;;;;;;3.72;100.00;101147.88;7391859;19;20419;-64
2022/12/25 07:26:56;;;;;;;36.07;12.63;;;;;;;3.53;100.00;101161.81;7394884;19;20391;-64
2022/12/25 07:29:25;;;;;;;37.80;11.83;;;;;;;3.58;100.00;101152.84;7387425;19;20463;-65
2022/12/25 07:31:54;;;;;;;34.03;11.30;;;;;;;3.73;100.00;101142.00;7394479;19;20512;-64
2022/12/25 07:34:24;;;;;;;34.40;13.77;;;;;;;3.73;100.00;101139.44;7395661;19;20442;-64
2022/12/25 07:36:56;;;;;;;48.77;14.70;;;;;;;3.80;100.00;101131.50;7394768;19;20409;-64
2022/12/25 07:39:28;;;;;;;27.70;11.60;;;;;;;3.71;100.00;101128.25;7389762;19;20470;-64
2022/12/25 07:41:57;;;;;;;34.43;12.73;;;;;;;3.81;100.00;101123.06;7393320;19;20395;-64
2022/12/25 07:44:27;;;;;;;42.83;13.13;;;;;;;3.88;100.00;101119.28;7390301;19;20418;-64
2022/12/25 07:46:56;;;;;;;39.10;13.37;;;;;;;4.02;100.00;101112.69;7393742;19;20720;-65
2022/12/25 07:49:26;;;;;;;35.93;11.53;;;;;;;4.08;100.00;101113.13;7389206;19;20423;-64
2022/12/25 07:51:55;;;;;;;25.33;11.53;;;;;;;4.09;100.00;101109.78;7394361;19;20392;-64
2022/12/25 07:54:27;;;;;;;44.27;17.90;;;;;;;4.53;100.00;101108.72;7391709;19;20415;-65
2022/12/25 07:56:57;;;;;;;85.07;31.83;;;;;;;5.19;100.00;101098.78;7394390;19;20368;-64
2022/12/25 07:59:27;;;;;;;47.47;13.30;;;;;;;4.86;100.00;101098.19;7389224;19;20955;-64
2022/12/25 08:01:56;;;;;;;54.83;20.40;;;;;;;5.09;100.00;101093.81;7393585;19;20786;-64
2022/12/25 08:04:26;;;;;;;95.33;40.07;;;;;;;5.58;100.00;101100.53;7390847;19;20411;-64
2022/12/25 08:06:56;;;;;;;80.63;29.77;;;;;;;5.94;100.00;101106.31;7393577;19;20409;-65
2022/12/25 08:09:28;;;;;;;70.70;30.10;;;;;;;6.10;100.00;101125.31;7389245;19;20452;-65
2022/12/25 08:11:57;;;;;;;71.30;31.17;;;;;;;6.30;100.00;101137.72;7393797;19;20406;-64
2022/12/25 08:14:26;;;;;;;29.03;12.30;;;;;;;6.16;100.00;101159.88;7390212;19;20417;-64
2022/12/25 08:16:56;;;;;;;38.13;11.53;;;;;;;5.55;100.00;101162.63;7392722;19;20407;-65
2022/12/25 08:19:25;;;;;;;33.10;10.87;;;;;;;5.15;100.00;101181.22;7388421;19;20426;-64
2022/12/25 08:21:55;;;;;;;24.83;10.50;;;;;;;5.04;100.00;101190.69;7393983;19;20425;-64
2022/12/25 08:24:27;;;;;;;27.17;10.83;;;;;;;5.12;100.00;101183.53;7390355;19;20464;-64
2022/12/25 08:26:57;;;;;;;31.90;10.80;;;;;;;4.91;100.00;101191.47;7397482;19;20594;-64
2022/12/25 08:29:27;;;;;;;31.70;10.77;;;;;;;4.83;100.00;101190.91;7387406;19;20419;-64
2022/12/25 08:31:57;;;;;;;32.10;10.60;;;;;;;4.84;100.00;101204.59;7392505;19;20398;-64
2022/12/25 08:34:27;;;;;;;25.97;11.00;;;;;;;4.78;100.00;101206.72;7390247;19;20418;-64
2022/12/25 08:36:56;;;;;;;25.07;11.00;;;;;;;4.69;100.00;101212.94;7393134;19;20412;-62
2022/12/25 08:39:29;;;;;;;30.20;11.00;;;;;;;4.63;100.00;101222.72;7387761;19;20441;-64
2022/12/25 08:41:58;;;;;;;29.07;11.33;;;;;;;4.67;100.00;101214.47;7391706;19;20411;-62
2022/12/25 08:44:28;;;;;;;27.50;10.60;;;;;;;4.59;100.00;101216.50;7389842;19;20440;-63
2022/12/25 08:46:58;;;;;;;24.40;9.23;;;;;;;4.71;100.00;101210.47;7392659;19;20415;-65
2022/12/25 08:49:27;;;;;;;32.07;11.90;;;;;;;4.79;100.00;101200.81;7387551;19;20432;-64
2022/12/25 08:51:57;;;;;;;32.53;10.40;;;;;;;4.64;100.00;101204.06;7391567;19;20399;-65
2022/12/25 08:54:31;;;;;;;39.57;12.70;;;;;;;4.78;100.00;101199.03;7389166;19;20415;-64
2022/12/25 08:57:01;;;;;;;34.10;10.07;;;;;;;4.80;100.00;101194.91;7391335;19;20379;-64
2022/12/25 08:59:31;;;;;;;31.33;10.87;;;;;;;4.77;100.00;101197.28;7388823;19;20443;-65
2022/12/25 09:02:01;;;;;;;34.13;10.97;;;;;;;4.91;100.00;101199.16;7393897;19;20757;-64
2022/12/25 09:04:30;;;;;;;31.27;10.40;;;;;;;4.85;100.00;101198.69;7388587;19;20541;-64
2022/12/25 09:07:01;;;;;;;26.53;10.53;;;;;;;4.78;100.00;101199.94;7392824;19;20392;-65
2022/12/25 09:09:33;;;;;;;31.73;11.80;;;;;;;4.88;100.00;101193.81;7387373;19;20426;-64
2022/12/25 09:12:03;;;;;;;27.97;10.30;;;;;;;4.81;100.00;101191.56;7391204;19;20421;-64
2022/12/25 09:14:32;;;;;;;34.27;12.30;;;;;;;4.85;100.00;101178.25;7388743;19;20428;-65
2022/12/25 09:17:02;;;;;;;38.63;11.30;;;;;;;4.67;100.00;101168.47;7390879;19;20388;-63
2022/12/25 09:19:32;;;;;;;28.43;9.33;;;;;;;4.65;100.00;101159.81;7386060;19;20519;-64
2022/12/25 09:22:02;;;;;;;28.50;9.20;;;;;;;4.64;100.00;101149.47;7390855;19;20394;-65
2022/12/25 09:24:34;;;;;;;31.97;9.60;;;;;;;4.61;100.00;101142.47;7387934;19;20416;-64
2022/12/25 09:27:03;;;;;;;37.10;9.83;;;;;;;4.71;100.00;101126.13;7391552;19;20937;-64
2022/12/25 09:29:33;;;;;;;25.33;9.63;;;;;;;4.67;100.00;101127.56;7385634;19;20431;-63
2022/12/25 09:32:02;;;;;;;22.77;9.90;;;;;;;4.67;100.00;101134.38;7390699;19;20413;-64
2022/12/25 09:34:32;;;;;;;26.77;10.63;;;;;;;4.69;100.00;101136.25;7387540;19;20430;-64
2022/12/25 09:37:02;;;;;;;35.83;9.83;;;;;;;4.73;100.00;101122.03;7390159;19;20386;-64
2022/12/25 09:39:34;;;;;;;32.63;10.37;;;;;;;4.68;100.00;101121.66;7385584;19;20808;-64
2022/12/25 09:42:16;;;;;;;25.00;9.53;;;;;;;4.71;100.00;101109.13;7388996;19;20416;-64
2022/12/25 09:44:49;;;;;;;23.80;9.23;;;;;;;4.80;100.00;101102.88;7387114;19;20559;-64
2022/12/25 09:47:21;;;;;;;25.23;9.77;;;;;;;4.86;100.00;101099.09;7389326;19;20394;-64
2022/12/25 09:49:53;;;;;;;34.07;10.40;;;;;;;4.92;100.00;101088.41;7387666;19;20411;-64
2022/12/25 09:52:30;;;;;;;23.53;9.27;;;;;;;4.81;100.00;101095.31;7396943;19;20366;-64
2022/12/25 09:55:08;;;;;;;24.57;9.60;;;;;;;4.89;100.00;101094.97;7404196;19;20380;-64
2022/12/25 09:57:44;;;;;;;28.10;10.30;;;;;;;4.90;100.00;101094.19;7400986;19;20403;-64
2022/12/25 10:00:19;;;;;;;29.07;10.20;;;;;;;4.90;100.00;101084.84;7402017;19;20435;-64
2022/12/25 10:03:07;;;;;;;27.10;9.57;;;;;;;4.96;100.00;101080.16;7401231;19;20394;-64
2022/12/25 10:05:49;;;;;;;31.80;10.70;;;;;;;5.06;100.00;101086.81;7403289;19;20392;-64
2022/12/25 10:08:27;;;;;;;31.67;10.73;;;;;;;5.06;100.00;101073.13;7400235;19;20407;-64
2022/12/25 10:11:04;;;;;;;28.63;11.47;;;;;;;5.04;100.00;101082.38;7403968;19;20766;-64
2022/12/25 10:13:50;;;;;;;59.07;24.77;;;;;;;5.08;100.00;101079.25;7401641;19;20440;-65
2022/12/25 10:16:25;;;;;;;27.63;13.17;;;;;;;5.11;100.00;101072.69;7403884;19;20395;-65
2022/12/25 10:19:18;;;;;;;37.90;15.73;;;;;;;5.11;100.00;101089.69;7401256;19;20435;-65
2022/12/25 10:21:48;;;;;;;23.40;10.33;;;;;;;5.11;100.00;101084.56;7403919;19;20877;-65
2022/12/25 10:24:24;;;;;;;31.13;10.00;;;;;;;5.10;100.00;101072.56;7399855;19;20435;-64
2022/12/25 10:26:58;;;;;;;25.73;10.50;;;;;;;5.16;100.00;101062.75;7403315;19;20455;-64
2022/12/25 10:29:32;;;;;;;30.13;9.87;;;;;;;5.10;100.00;101050.44;7399174;19;20422;-64
2022/12/25 10:32:02;;;;;;;35.40;10.90;;;;;;;5.11;100.00;101053.88;7403560;19;20418;-65
2022/12/25 10:34:31;;;;;;;27.73;10.27;;;;;;;5.17;100.00;101051.72;7400377;19;20436;-65
2022/12/25 10:37:01;;;;;;;22.87;10.63;;;;;;;5.20;100.00;101043.38;7403489;19;20395;-65
2022/12/25 10:39:30;;;;;;;37.47;10.87;;;;;;;5.20;100.00;101028.94;7398632;19;20460;-64
2022/12/25 10:42:12;;;;;;;27.80;10.70;;;;;;;5.25;100.00;101032.69;7402758;19;20404;-64
2022/12/25 10:44:42;;;;;;;33.63;10.77;;;;;;;5.23;100.00;101024.00;7398312;19;20442;-64
2022/12/25 10:47:12;;;;;;;39.97;11.53;;;;;;;5.28;100.00;101026.88;7403352;19;20392;-64
2022/12/25 10:49:41;;;;;;;27.23;12.87;;;;;;;5.37;100.00;101024.94;7398073;19;21117;-65
2022/12/25 10:52:21;;;;;;;28.00;10.60;;;;;;;5.34;100.00;101024.72;7402902;19;20409;-64
2022/12/25 10:54:51;;;;;;;29.10;10.73;;;;;;;5.34;100.00;101016.19;7401876;19;20795;-64
2022/12/25 10:57:25;;;;;;;31.87;10.10;;;;;;;5.33;100.00;101014.41;7400503;19;20379;-64
2022/12/25 10:59:57;;;;;;;30.40;9.83;;;;;;;5.36;100.00;101015.50;7399725;19;20423;-64
2022/12/25 11:02:28;;;;;;;31.87;9.97;;;;;;;5.40;100.00;101022.56;7399529;19;20922;-64
2022/12/25 11:05:04;;;;;;;21.60;9.57;;;;;;;5.36;100.00;101019.72;7392173;19;20388;-63
2022/12/25 11:07:45;;;;;;;25.37;9.00;;;;;;;5.38;100.00;101013.03;7392722;19;20398;-64
2022/12/25 11:10:22;;;;;;;30.87;9.13;;;;;;;5.36;100.00;101005.25;7395971;19;20495;-64
2022/12/25 11:12:55;;;;;;;24.77;10.90;;;;;;;5.44;100.00;100998.06;7391906;19;20415;-63
2022/12/25 11:15:35;;;;;;;17.93;8.50;;;;;;;5.47;100.00;100975.25;7394694;19;20403;-64
2022/12/25 11:18:05;;;;;;;26.83;10.03;;;;;;;5.52;100.00;100973.00;7392017;19;21054;-63
2022/12/25 11:20:35;;;;;;;28.13;9.13;;;;;;;5.48;100.00;100979.59;7393276;19;20400;-64
2022/12/25 11:23:11;;;;;;;25.33;9.53;;;;;;;5.53;100.00;100983.34;7391460;19;20448;-64
2022/12/25 11:25:40;;;;;;;30.97;11.93;;;;;;;5.45;100.00;100989.63;7392077;19;20394;-64
2022/12/25 11:28:14;;;;;;;24.00;9.70;;;;;;;5.48;100.00;100974.47;7389755;19;20403;-64
2022/12/25 11:30:43;;;;;;;26.57;9.40;;;;;;;5.60;100.00;100968.38;7393978;19;20944;-64
2022/12/25 11:33:14;;;;;;;29.70;10.53;;;;;;;5.67;100.00;100973.13;7392238;19;20420;-64
2022/12/25 11:35:46;;;;;;;32.73;10.97;;;;;;;5.72;100.00;100975.97;7394224;19;20396;-64
2022/12/25 11:38:16;;;;;;;20.30;10.20;;;;;;;5.67;100.00;100980.78;7392394;19;20769;-64
2022/12/25 11:40:47;;;;;;;30.70;10.37;;;;;;;5.68;100.00;100967.22;7392171;19;20393;-63
2022/12/25 11:43:23;;;;;;;23.63;10.20;;;;;;;5.58;100.00;100975.09;7393782;19;20394;-64
2022/12/25 11:45:55;;;;;;;29.23;10.27;;;;;;;5.61;100.00;100975.28;7387107;19;20413;-64
2022/12/25 11:48:27;;;;;;;35.13;10.57;;;;;;;5.68;100.00;100972.31;7393183;19;20424;-64
2022/12/25 11:50:59;;;;;;;25.33;9.50;;;;;;;5.71;100.00;100972.53;7388923;19;20414;-64
2022/12/25 11:53:33;;;;;;;23.13;9.73;;;;;;;5.76;100.00;100963.50;7394204;19;20390;-64
2022/12/25 11:56:05;;;;;;;21.90;10.63;;;;;;;5.78;100.00;100954.22;7388512;19;20747;-65
2022/12/25 11:58:40;;;;;;;26.50;11.57;;;;;;;5.80;100.00;100965.44;7391920;19;20413;-64
2022/12/25 12:01:18;;;;;;;27.00;11.13;;;;;;;5.78;100.00;100967.03;7390212;19;20798;-66
2022/12/25 12:03:47;;;;;;;28.13;9.47;;;;;;;5.72;100.00;100973.41;7392970;19;20933;-64
2022/12/25 12:06:21;;;;;;;25.70;11.43;;;;;;;5.77;100.00;100967.81;7391345;19;20453;-65
2022/12/25 12:08:55;;;;;;;21.70;9.70;;;;;;;5.71;100.00;100982.78;7390704;19;20451;-64
2022/12/25 12:11:28;;;;;;;27.57;11.23;;;;;;;5.73;100.00;100976.06;7390760;19;20424;-64
2022/12/25 12:14:21;;;;;;;31.57;10.40;;;;;;;5.79;100.00;100971.34;7392112;19;20417;-65
2022/12/25 12:16:51;;;;;;;27.17;11.13;;;;;;;5.83;100.00;100971.56;7393399;19;20469;-64
2022/12/25 12:19:27;;;;;;;24.30;9.90;;;;;;;5.90;100.00;100971.16;7389942;19;20458;-64
2022/12/25 12:21:57;;;;;;;21.90;10.70;;;;;;;5.94;100.00;100968.91;7392289;19;20414;-64
2022/12/25 12:24:30;;;;;;;22.50;9.80;;;;;;;6.01;100.00;100971.84;7388770;19;20416;-64
2022/12/25 12:27:04;;;;;;;30.57;10.57;;;;;;;6.06;100.00;100966.25;7394571;19;20404;-64
2022/12/25 12:29:41;;;;;;;35.90;11.20;;;;;;;6.08;100.00;100958.66;7387508;19;20449;-65
2022/12/25 12:32:36;;;;;;;27.67;9.87;;;;;;;5.92;100.00;100965.34;7392229;19;20398;-65
2022/12/25 12:35:14;;;;;;;27.50;10.40;;;;;;;5.83;100.00;100961.31;7389305;19;20440;-64
2022/12/25 12:37:43;;;;;;;25.10;10.23;;;;;;;5.91;100.00;100953.31;7391774;19;20405;-65
2022/12/25 12:40:29;;;;;;;25.90;10.33;;;;;;;5.89;100.00;100962.59;7381505;19;21260;-65
2022/12/25 12:42:59;;;;;;;38.87;16.70;;;;;;;6.05;100.00;100954.22;7391902;19;20394;-66
2022/12/25 12:45:33;;;;;;;35.83;14.67;;;;;;;6.66;100.00;100954.50;7387953;19;20433;-65
2022/12/25 12:48:04;;;;;;;113.80;51.33;;;;;;;7.78;100.00;100950.69;7390388;19;20382;-65
2022/12/25 12:50:36;;;;;;;35.30;15.60;;;;;;;7.41;100.00;100940.09;7388502;19;20406;-64
2022/12/25 12:53:28;;;;;;;100.27;46.90;;;;;;;7.47;100.00;100933.53;7391617;19;20410;-65
2022/12/25 12:55:58;;;;;;;125.90;58.70;;;;;;;7.84;100.00;100917.63;7388741;19;20415;-65
2022/12/25 12:58:32;;;;;;;73.33;34.17;;;;;;;7.89;100.00;100921.34;7390884;19;20476;-65
2022/12/25 13:01:13;;;;;;;63.17;30.93;;;;;;;7.82;100.00;100926.94;7388518;19;20411;-66
2022/12/25 13:03:58;;;;;;;96.77;47.40;;;;;;;7.88;100.00;100929.84;7391865;19;20415;-64
2022/12/25 13:06:35;;;;;;;52.67;26.10;;;;;;;8.23;100.00;100925.78;7389911;19;20989;-65
2022/12/25 13:09:09;;;;;;;36.60;16.07;;;;;;;7.52;100.00;100942.38;7390241;19;20949;-65
2022/12/25 13:11:42;;;;;;;30.20;12.57;;;;;;;7.22;100.00;100956.09;7387949;19;20434;-65
2022/12/25 13:14:15;;;;;;;23.43;10.30;;;;;;;6.96;100.00;100973.41;7390903;19;20416;-65
2022/12/25 13:16:49;;;;;;;30.17;12.83;;;;;;;6.93;100.00;100991.22;7387897;19;20419;-66
2022/12/25 13:19:20;;;;;;;22.77;11.03;;;;;;;6.91;100.00;100994.47;7389815;19;20431;-65
2022/12/25 13:21:54;;;;;;;19.70;9.50;;;;;;;6.69;100.00;100990.59;7389954;19;20419;-65